sensor_id;sensor_type;location;lat;lon;timestamp;P1;durP1;ratioP1;P2;durP2;ratioP2
6566;SDS011;3317;43.994;22.878;2022-09-27T00:01:21;9.47;;;8.40;;
6566;SDS011;3317;43.994;22.878;2022-09-27T00:03:48;8.07;;;6.57;;
6566;SDS011;3317;43.994;22.878;2022-09-27T00:06:23;6.70;;;6.10;;
6566;SDS011;3317;43.994;22.878;2022-09-27T00:08:51;6.83;;;6.13;;
6566;SDS011;3317;43.994;22.878;2022-09-27T00:11:21;7.63;;;6.83;;
6566;SDS011;3317;43.994;22.878;2022-09-27T00:13:51;8.30;;;7.50;;
6566;SDS011;3317;43.994;22.878;2022-09-27T00:16:19;8.43;;;7.57;;
6566;SDS011;3317;43.994;22.878;2022-09-27T00:18:47;7.40;;;6.60;;
6566;SDS011;3317;43.994;22.878;2022-09-27T00:21:14;6.80;;;6.10;;
6566;SDS011;3317;43.994;22.878;2022-09-27T00:23:42;6.60;;;6.00;;
6566;SDS011;3317;43.994;22.878;2022-09-27T00:26:10;7.20;;;6.33;;
6566;SDS011;3317;43.994;22.878;2022-09-27T00:28:38;6.30;;;5.70;;
6566;SDS011;3317;43.994;22.878;2022-09-27T00:31:10;6.73;;;5.70;;
6566;SDS011;3317;43.994;22.878;2022-09-27T00:33:45;7.93;;;7.13;;
6566;SDS011;3317;43.994;22.878;2022-09-27T00:36:12;8.90;;;7.97;;
6566;SDS011;3317;43.994;22.878;2022-09-27T00:38:39;8.83;;;7.67;;
6566;SDS011;3317;43.994;22.878;2022-09-27T00:41:09;8.20;;;7.40;;
6566;SDS011;3317;43.994;22.878;2022-09-27T00:43:44;8.83;;;7.93;;
6566;SDS011;3317;43.994;22.878;2022-09-27T00:46:15;9.00;;;7.33;;
6566;SDS011;3317;43.994;22.878;2022-09-27T00:48:48;8.20;;;7.40;;
6566;SDS011;3317;43.994;22.878;2022-09-27T00:51:24;7.47;;;6.67;;
6566;SDS011;3317;43.994;22.878;2022-09-27T00:53:52;7.83;;;6.83;;
6566;SDS011;3317;43.994;22.878;2022-09-27T00:56:26;7.87;;;7.17;;
6566;SDS011;3317;43.994;22.878;2022-09-27T00:58:58;9.57;;;8.57;;
6566;SDS011;3317;43.994;22.878;2022-09-27T01:01:29;9.50;;;8.40;;
6566;SDS011;3317;43.994;22.878;2022-09-27T01:03:58;7.83;;;6.97;;
6566;SDS011;3317;43.994;22.878;2022-09-27T01:06:29;8.60;;;7.70;;
6566;SDS011;3317;43.994;22.878;2022-09-27T01:08:56;7.73;;;7.03;;
6566;SDS011;3317;43.994;22.878;2022-09-27T01:11:27;7.97;;;7.17;;
6566;SDS011;3317;43.994;22.878;2022-09-27T01:14:10;8.23;;;7.43;;
6566;SDS011;3317;43.994;22.878;2022-09-27T01:16:49;7.17;;;6.47;;
6566;SDS011;3317;43.994;22.878;2022-09-27T01:19:35;6.97;;;6.27;;
6566;SDS011;3317;43.994;22.878;2022-09-27T01:22:22;7.40;;;6.70;;
6566;SDS011;3317;43.994;22.878;2022-09-27T01:24:58;8.47;;;7.53;;
6566;SDS011;3317;43.994;22.878;2022-09-27T01:27:44;7.30;;;6.60;;
6566;SDS011;3317;43.994;22.878;2022-09-27T01:30:31;7.47;;;6.70;;
6566;SDS011;3317;43.994;22.878;2022-09-27T01:33:09;7.30;;;6.60;;
6566;SDS011;3317;43.994;22.878;2022-09-27T01:35:52;7.53;;;6.50;;
6566;SDS011;3317;43.994;22.878;2022-09-27T01:38:29;7.97;;;7.07;;
6566;SDS011;3317;43.994;22.878;2022-09-27T01:41:03;6.53;;;5.70;;
6566;SDS011;3317;43.994;22.878;2022-09-27T01:43:39;6.90;;;6.20;;
6566;SDS011;3317;43.994;22.878;2022-09-27T01:46:14;6.60;;;5.57;;
6566;SDS011;3317;43.994;22.878;2022-09-27T01:48:47;7.20;;;6.50;;
6566;SDS011;3317;43.994;22.878;2022-09-27T01:51:17;7.00;;;6.30;;
6566;SDS011;3317;43.994;22.878;2022-09-27T01:53:49;6.63;;;5.97;;
6566;SDS011;3317;43.994;22.878;2022-09-27T01:56:20;8.20;;;6.70;;
6566;SDS011;3317;43.994;22.878;2022-09-27T01:58:53;7.20;;;5.47;;
6566;SDS011;3317;43.994;22.878;2022-09-27T02:01:26;7.40;;;6.60;;
6566;SDS011;3317;43.994;22.878;2022-09-27T02:03:56;8.50;;;7.60;;
6566;SDS011;3317;43.994;22.878;2022-09-27T02:06:27;9.13;;;7.90;;
6566;SDS011;3317;43.994;22.878;2022-09-27T02:09:01;10.43;;;8.47;;
6566;SDS011;3317;43.994;22.878;2022-09-27T02:11:32;9.60;;;8.60;;
6566;SDS011;3317;43.994;22.878;2022-09-27T02:14:05;6.90;;;6.20;;
6566;SDS011;3317;43.994;22.878;2022-09-27T02:16:41;7.93;;;7.03;;
6566;SDS011;3317;43.994;22.878;2022-09-27T02:19:17;7.63;;;6.40;;
6566;SDS011;3317;43.994;22.878;2022-09-27T02:21:54;6.87;;;6.17;;
6566;SDS011;3317;43.994;22.878;2022-09-27T02:24:29;8.57;;;7.77;;
6566;SDS011;3317;43.994;22.878;2022-09-27T02:27:04;10.17;;;9.17;;
6566;SDS011;3317;43.994;22.878;2022-09-27T02:29:38;8.47;;;7.60;;
6566;SDS011;3317;43.994;22.878;2022-09-27T02:32:12;8.00;;;7.20;;
6566;SDS011;3317;43.994;22.878;2022-09-27T02:34:39;9.30;;;8.30;;
6566;SDS011;3317;43.994;22.878;2022-09-27T02:37:08;7.87;;;7.07;;
6566;SDS011;3317;43.994;22.878;2022-09-27T02:39:35;9.03;;;8.13;;
6566;SDS011;3317;43.994;22.878;2022-09-27T02:42:02;9.43;;;8.47;;
6566;SDS011;3317;43.994;22.878;2022-09-27T02:44:30;8.57;;;7.10;;
6566;SDS011;3317;43.994;22.878;2022-09-27T02:47:15;10.03;;;9.03;;
6566;SDS011;3317;43.994;22.878;2022-09-27T02:49:59;8.97;;;8.07;;
6566;SDS011;3317;43.994;22.878;2022-09-27T02:52:40;8.77;;;7.87;;
6566;SDS011;3317;43.994;22.878;2022-09-27T02:55:23;9.37;;;8.30;;
6566;SDS011;3317;43.994;22.878;2022-09-27T02:58:01;9.10;;;8.20;;
6566;SDS011;3317;43.994;22.878;2022-09-27T03:00:35;7.97;;;7.13;;
6566;SDS011;3317;43.994;22.878;2022-09-27T03:03:08;9.23;;;8.30;;
6566;SDS011;3317;43.994;22.878;2022-09-27T03:05:44;8.07;;;7.03;;
6566;SDS011;3317;43.994;22.878;2022-09-27T03:08:16;9.53;;;6.90;;
6566;SDS011;3317;43.994;22.878;2022-09-27T03:10:44;8.70;;;6.93;;
6566;SDS011;3317;43.994;22.878;2022-09-27T03:13:11;7.47;;;6.50;;
6566;SDS011;3317;43.994;22.878;2022-09-27T03:15:38;10.33;;;9.30;;
6566;SDS011;3317;43.994;22.878;2022-09-27T03:18:05;11.90;;;10.67;;
6566;SDS011;3317;43.994;22.878;2022-09-27T03:20:33;9.90;;;8.90;;
6566;SDS011;3317;43.994;22.878;2022-09-27T03:23:00;11.13;;;9.27;;
6566;SDS011;3317;43.994;22.878;2022-09-27T03:25:27;14.00;;;9.00;;
6566;SDS011;3317;43.994;22.878;2022-09-27T03:27:54;8.40;;;7.50;;
6566;SDS011;3317;43.994;22.878;2022-09-27T03:30:21;8.00;;;7.20;;
6566;SDS011;3317;43.994;22.878;2022-09-27T03:32:48;11.97;;;7.20;;
6566;SDS011;3317;43.994;22.878;2022-09-27T03:35:15;9.10;;;8.27;;
6566;SDS011;3317;43.994;22.878;2022-09-27T03:37:43;9.93;;;8.50;;
6566;SDS011;3317;43.994;22.878;2022-09-27T03:40:11;10.57;;;8.77;;
6566;SDS011;3317;43.994;22.878;2022-09-27T03:42:38;8.80;;;7.70;;
6566;SDS011;3317;43.994;22.878;2022-09-27T03:45:05;9.30;;;8.40;;
6566;SDS011;3317;43.994;22.878;2022-09-27T03:47:33;11.13;;;10.00;;
6566;SDS011;3317;43.994;22.878;2022-09-27T03:50:00;11.00;;;9.90;;
6566;SDS011;3317;43.994;22.878;2022-09-27T03:52:27;11.53;;;10.33;;
6566;SDS011;3317;43.994;22.878;2022-09-27T03:55:00;9.30;;;7.57;;
6566;SDS011;3317;43.994;22.878;2022-09-27T03:57:27;10.90;;;8.27;;
6566;SDS011;3317;43.994;22.878;2022-09-27T03:59:56;11.13;;;10.03;;
6566;SDS011;3317;43.994;22.878;2022-09-27T04:02:24;9.33;;;8.40;;
6566;SDS011;3317;43.994;22.878;2022-09-27T04:04:51;10.57;;;9.57;;
6566;SDS011;3317;43.994;22.878;2022-09-27T04:07:18;9.83;;;8.83;;
6566;SDS011;3317;43.994;22.878;2022-09-27T04:09:45;10.43;;;9.37;;
6566;SDS011;3317;43.994;22.878;2022-09-27T04:12:14;11.30;;;8.80;;
6566;SDS011;3317;43.994;22.878;2022-09-27T04:14:43;12.00;;;10.47;;
6566;SDS011;3317;43.994;22.878;2022-09-27T04:17:10;11.97;;;10.30;;
6566;SDS011;3317;43.994;22.878;2022-09-27T04:19:37;11.83;;;10.57;;
6566;SDS011;3317;43.994;22.878;2022-09-27T04:22:04;12.63;;;11.33;;
6566;SDS011;3317;43.994;22.878;2022-09-27T04:24:32;11.93;;;10.73;;
6566;SDS011;3317;43.994;22.878;2022-09-27T04:26:59;12.13;;;10.93;;
6566;SDS011;3317;43.994;22.878;2022-09-27T04:29:27;12.00;;;10.70;;
6566;SDS011;3317;43.994;22.878;2022-09-27T04:31:54;12.20;;;10.90;;
6566;SDS011;3317;43.994;22.878;2022-09-27T04:34:21;12.97;;;11.27;;
6566;SDS011;3317;43.994;22.878;2022-09-27T04:37:08;15.93;;;11.73;;
6566;SDS011;3317;43.994;22.878;2022-09-27T04:39:35;13.47;;;11.80;;
6566;SDS011;3317;43.994;22.878;2022-09-27T04:42:03;12.40;;;11.10;;
6566;SDS011;3317;43.994;22.878;2022-09-27T04:44:32;13.37;;;11.40;;
6566;SDS011;3317;43.994;22.878;2022-09-27T04:47:00;14.50;;;12.40;;
6566;SDS011;3317;43.994;22.878;2022-09-27T04:49:27;12.73;;;11.20;;
6566;SDS011;3317;43.994;22.878;2022-09-27T04:51:54;13.73;;;12.33;;
6566;SDS011;3317;43.994;22.878;2022-09-27T04:54:21;13.50;;;12.10;;
6566;SDS011;3317;43.994;22.878;2022-09-27T04:56:48;16.70;;;13.83;;
6566;SDS011;3317;43.994;22.878;2022-09-27T04:59:15;14.13;;;12.53;;
6566;SDS011;3317;43.994;22.878;2022-09-27T05:01:43;14.50;;;13.00;;
6566;SDS011;3317;43.994;22.878;2022-09-27T05:04:11;12.40;;;11.10;;
6566;SDS011;3317;43.994;22.878;2022-09-27T05:06:38;15.93;;;12.23;;
6566;SDS011;3317;43.994;22.878;2022-09-27T05:09:05;15.00;;;11.93;;
6566;SDS011;3317;43.994;22.878;2022-09-27T05:11:32;12.07;;;10.80;;
6566;SDS011;3317;43.994;22.878;2022-09-27T05:14:02;14.90;;;11.67;;
6566;SDS011;3317;43.994;22.878;2022-09-27T05:16:29;14.23;;;11.60;;
6566;SDS011;3317;43.994;22.878;2022-09-27T05:18:57;13.40;;;10.40;;
6566;SDS011;3317;43.994;22.878;2022-09-27T05:21:24;13.73;;;11.87;;
6566;SDS011;3317;43.994;22.878;2022-09-27T05:23:51;14.23;;;11.47;;
6566;SDS011;3317;43.994;22.878;2022-09-27T05:26:19;13.23;;;11.80;;
6566;SDS011;3317;43.994;22.878;2022-09-27T05:28:46;12.70;;;11.40;;
6566;SDS011;3317;43.994;22.878;2022-09-27T05:31:13;14.10;;;11.93;;
6566;SDS011;3317;43.994;22.878;2022-09-27T05:33:40;16.40;;;12.73;;
6566;SDS011;3317;43.994;22.878;2022-09-27T05:36:09;13.10;;;11.70;;
6566;SDS011;3317;43.994;22.878;2022-09-27T05:38:36;18.20;;;12.40;;
6566;SDS011;3317;43.994;22.878;2022-09-27T05:41:04;14.67;;;12.33;;
6566;SDS011;3317;43.994;22.878;2022-09-27T05:43:31;14.47;;;12.50;;
6566;SDS011;3317;43.994;22.878;2022-09-27T05:45:58;14.70;;;13.20;;
6566;SDS011;3317;43.994;22.878;2022-09-27T05:48:25;14.40;;;12.50;;
6566;SDS011;3317;43.994;22.878;2022-09-27T05:50:54;14.53;;;12.63;;
6566;SDS011;3317;43.994;22.878;2022-09-27T05:53:23;14.77;;;12.33;;
6566;SDS011;3317;43.994;22.878;2022-09-27T05:55:50;12.40;;;10.17;;
6566;SDS011;3317;43.994;22.878;2022-09-27T05:58:17;14.73;;;12.23;;
6566;SDS011;3317;43.994;22.878;2022-09-27T06:00:43;15.70;;;12.93;;
6566;SDS011;3317;43.994;22.878;2022-09-27T06:03:11;12.70;;;10.17;;
6566;SDS011;3317;43.994;22.878;2022-09-27T06:05:39;13.43;;;11.40;;
6566;SDS011;3317;43.994;22.878;2022-09-27T06:08:07;17.27;;;12.37;;
6566;SDS011;3317;43.994;22.878;2022-09-27T06:10:37;12.43;;;11.13;;
6566;SDS011;3317;43.994;22.878;2022-09-27T06:13:06;13.33;;;11.63;;
6566;SDS011;3317;43.994;22.878;2022-09-27T06:15:35;14.33;;;11.97;;
6566;SDS011;3317;43.994;22.878;2022-09-27T06:18:05;15.00;;;12.20;;
6566;SDS011;3317;43.994;22.878;2022-09-27T06:20:34;16.80;;;12.80;;
6566;SDS011;3317;43.994;22.878;2022-09-27T06:23:05;15.07;;;11.93;;
6566;SDS011;3317;43.994;22.878;2022-09-27T06:25:33;14.70;;;12.53;;
6566;SDS011;3317;43.994;22.878;2022-09-27T06:28:02;13.97;;;12.30;;
6566;SDS011;3317;43.994;22.878;2022-09-27T06:30:30;14.70;;;12.50;;
6566;SDS011;3317;43.994;22.878;2022-09-27T06:32:57;14.93;;;11.40;;
6566;SDS011;3317;43.994;22.878;2022-09-27T06:35:26;13.00;;;11.33;;
6566;SDS011;3317;43.994;22.878;2022-09-27T06:37:54;12.97;;;11.07;;
6566;SDS011;3317;43.994;22.878;2022-09-27T06:40:21;14.30;;;11.23;;
6566;SDS011;3317;43.994;22.878;2022-09-27T06:42:51;13.33;;;11.93;;
6566;SDS011;3317;43.994;22.878;2022-09-27T06:45:20;14.60;;;11.90;;
6566;SDS011;3317;43.994;22.878;2022-09-27T06:47:46;11.67;;;10.30;;
6566;SDS011;3317;43.994;22.878;2022-09-27T06:50:13;13.07;;;11.67;;
6566;SDS011;3317;43.994;22.878;2022-09-27T06:52:45;14.60;;;11.50;;
6566;SDS011;3317;43.994;22.878;2022-09-27T06:55:13;11.03;;;9.93;;
6566;SDS011;3317;43.994;22.878;2022-09-27T06:57:40;12.60;;;11.20;;
6566;SDS011;3317;43.994;22.878;2022-09-27T07:00:26;16.83;;;11.63;;
6566;SDS011;3317;43.994;22.878;2022-09-27T07:02:54;13.40;;;11.07;;
6566;SDS011;3317;43.994;22.878;2022-09-27T07:05:25;12.47;;;10.60;;
6566;SDS011;3317;43.994;22.878;2022-09-27T07:07:53;15.17;;;12.97;;
6566;SDS011;3317;43.994;22.878;2022-09-27T07:10:22;12.33;;;11.03;;
6566;SDS011;3317;43.994;22.878;2022-09-27T07:12:50;13.73;;;11.40;;
6566;SDS011;3317;43.994;22.878;2022-09-27T07:15:18;13.17;;;10.70;;
6566;SDS011;3317;43.994;22.878;2022-09-27T07:17:48;11.30;;;10.03;;
6566;SDS011;3317;43.994;22.878;2022-09-27T07:20:22;14.67;;;11.40;;
6566;SDS011;3317;43.994;22.878;2022-09-27T07:22:49;17.37;;;10.77;;
6566;SDS011;3317;43.994;22.878;2022-09-27T07:25:16;12.23;;;10.93;;
6566;SDS011;3317;43.994;22.878;2022-09-27T07:27:43;15.73;;;12.53;;
6566;SDS011;3317;43.994;22.878;2022-09-27T07:30:10;11.50;;;9.60;;
6566;SDS011;3317;43.994;22.878;2022-09-27T07:32:37;11.80;;;10.30;;
6566;SDS011;3317;43.994;22.878;2022-09-27T07:35:07;10.80;;;9.67;;
6566;SDS011;3317;43.994;22.878;2022-09-27T07:37:35;12.10;;;10.33;;
6566;SDS011;3317;43.994;22.878;2022-09-27T07:40:04;13.27;;;11.30;;
6566;SDS011;3317;43.994;22.878;2022-09-27T07:42:33;14.87;;;11.70;;
6566;SDS011;3317;43.994;22.878;2022-09-27T07:45:02;12.30;;;10.03;;
6566;SDS011;3317;43.994;22.878;2022-09-27T07:47:30;12.77;;;11.10;;
6566;SDS011;3317;43.994;22.878;2022-09-27T07:49:57;12.00;;;10.70;;
6566;SDS011;3317;43.994;22.878;2022-09-27T07:52:25;12.40;;;9.47;;
6566;SDS011;3317;43.994;22.878;2022-09-27T07:54:52;9.93;;;8.93;;
6566;SDS011;3317;43.994;22.878;2022-09-27T07:57:20;11.83;;;10.67;;
6566;SDS011;3317;43.994;22.878;2022-09-27T07:59:48;13.80;;;9.80;;
6566;SDS011;3317;43.994;22.878;2022-09-27T08:02:15;12.30;;;10.50;;
6566;SDS011;3317;43.994;22.878;2022-09-27T08:04:43;10.83;;;9.80;;
6566;SDS011;3317;43.994;22.878;2022-09-27T08:07:11;11.73;;;10.20;;
6566;SDS011;3317;43.994;22.878;2022-09-27T08:09:40;18.30;;;10.80;;
6566;SDS011;3317;43.994;22.878;2022-09-27T08:12:07;11.17;;;10.07;;
6566;SDS011;3317;43.994;22.878;2022-09-27T08:14:34;14.90;;;10.87;;
6566;SDS011;3317;43.994;22.878;2022-09-27T08:17:01;9.87;;;8.97;;
6566;SDS011;3317;43.994;22.878;2022-09-27T08:19:28;12.30;;;11.00;;
6566;SDS011;3317;43.994;22.878;2022-09-27T08:21:55;12.90;;;10.83;;
6566;SDS011;3317;43.994;22.878;2022-09-27T08:24:22;10.87;;;9.77;;
6566;SDS011;3317;43.994;22.878;2022-09-27T08:26:51;12.70;;;10.90;;
6566;SDS011;3317;43.994;22.878;2022-09-27T08:29:18;11.50;;;10.30;;
6566;SDS011;3317;43.994;22.878;2022-09-27T08:31:45;13.27;;;10.40;;
6566;SDS011;3317;43.994;22.878;2022-09-27T08:34:12;10.07;;;8.27;;
6566;SDS011;3317;43.994;22.878;2022-09-27T08:36:39;12.40;;;9.07;;
6566;SDS011;3317;43.994;22.878;2022-09-27T08:39:08;10.50;;;8.27;;
6566;SDS011;3317;43.994;22.878;2022-09-27T08:41:36;11.80;;;10.50;;
6566;SDS011;3317;43.994;22.878;2022-09-27T08:44:10;10.20;;;8.97;;
6566;SDS011;3317;43.994;22.878;2022-09-27T08:46:46;12.03;;;9.93;;
6566;SDS011;3317;43.994;22.878;2022-09-27T08:49:23;11.23;;;9.70;;
6566;SDS011;3317;43.994;22.878;2022-09-27T08:51:53;12.53;;;10.37;;
6566;SDS011;3317;43.994;22.878;2022-09-27T08:54:23;8.53;;;7.63;;
6566;SDS011;3317;43.994;22.878;2022-09-27T08:56:53;8.97;;;8.10;;
6566;SDS011;3317;43.994;22.878;2022-09-27T08:59:30;9.90;;;8.87;;
6566;SDS011;3317;43.994;22.878;2022-09-27T09:02:03;12.40;;;11.00;;
6566;SDS011;3317;43.994;22.878;2022-09-27T09:04:35;10.73;;;8.80;;
6566;SDS011;3317;43.994;22.878;2022-09-27T09:07:07;10.23;;;9.23;;
6566;SDS011;3317;43.994;22.878;2022-09-27T09:09:43;9.53;;;7.67;;
6566;SDS011;3317;43.994;22.878;2022-09-27T09:12:21;11.20;;;9.80;;
6566;SDS011;3317;43.994;22.878;2022-09-27T09:15:23;11.17;;;9.97;;
6566;SDS011;3317;43.994;22.878;2022-09-27T09:18:22;17.23;;;10.60;;
6566;SDS011;3317;43.994;22.878;2022-09-27T09:20:57;11.20;;;9.83;;
6566;SDS011;3317;43.994;22.878;2022-09-27T09:23:39;9.40;;;8.50;;
6566;SDS011;3317;43.994;22.878;2022-09-27T09:26:17;12.60;;;10.27;;
6566;SDS011;3317;43.994;22.878;2022-09-27T09:28:56;16.17;;;12.80;;
6566;SDS011;3317;43.994;22.878;2022-09-27T09:31:35;14.63;;;11.47;;
6566;SDS011;3317;43.994;22.878;2022-09-27T09:34:09;11.40;;;10.20;;
6566;SDS011;3317;43.994;22.878;2022-09-27T09:36:43;10.70;;;9.60;;
6566;SDS011;3317;43.994;22.878;2022-09-27T09:39:16;9.97;;;9.00;;
6566;SDS011;3317;43.994;22.878;2022-09-27T09:41:53;11.10;;;9.90;;
6566;SDS011;3317;43.994;22.878;2022-09-27T09:44:31;10.87;;;9.70;;
6566;SDS011;3317;43.994;22.878;2022-09-27T09:47:09;14.40;;;11.93;;
6566;SDS011;3317;43.994;22.878;2022-09-27T09:49:43;14.20;;;12.47;;
6566;SDS011;3317;43.994;22.878;2022-09-27T09:52:17;12.43;;;10.90;;
6566;SDS011;3317;43.994;22.878;2022-09-27T09:54:48;12.10;;;10.67;;
6566;SDS011;3317;43.994;22.878;2022-09-27T09:57:19;11.50;;;10.30;;
6566;SDS011;3317;43.994;22.878;2022-09-27T09:59:51;11.33;;;10.07;;
6566;SDS011;3317;43.994;22.878;2022-09-27T10:02:27;10.17;;;9.17;;
6566;SDS011;3317;43.994;22.878;2022-09-27T10:04:58;9.97;;;8.97;;
6566;SDS011;3317;43.994;22.878;2022-09-27T10:07:26;11.27;;;9.93;;
6566;SDS011;3317;43.994;22.878;2022-09-27T10:09:56;9.20;;;8.30;;
6566;SDS011;3317;43.994;22.878;2022-09-27T10:12:26;9.73;;;8.73;;
6566;SDS011;3317;43.994;22.878;2022-09-27T10:14:54;11.40;;;10.20;;
6566;SDS011;3317;43.994;22.878;2022-09-27T10:17:24;13.37;;;9.30;;
6566;SDS011;3317;43.994;22.878;2022-09-27T10:20:01;13.10;;;11.37;;
6566;SDS011;3317;43.994;22.878;2022-09-27T10:22:30;13.13;;;10.10;;
6566;SDS011;3317;43.994;22.878;2022-09-27T10:25:01;11.80;;;9.40;;
6566;SDS011;3317;43.994;22.878;2022-09-27T10:27:36;12.50;;;10.90;;
6566;SDS011;3317;43.994;22.878;2022-09-27T10:30:12;11.47;;;9.50;;
6566;SDS011;3317;43.994;22.878;2022-09-27T10:32:50;12.40;;;9.40;;
6566;SDS011;3317;43.994;22.878;2022-09-27T10:35:31;12.77;;;11.00;;
6566;SDS011;3317;43.994;22.878;2022-09-27T10:40:51;13.13;;;11.63;;
6566;SDS011;3317;43.994;22.878;2022-09-27T10:46:06;14.73;;;11.63;;
6566;SDS011;3317;43.994;22.878;2022-09-27T10:48:40;12.00;;;10.80;;
6566;SDS011;3317;43.994;22.878;2022-09-27T10:51:18;12.07;;;10.73;;
6566;SDS011;3317;43.994;22.878;2022-09-27T10:53:50;12.77;;;11.47;;
6566;SDS011;3317;43.994;22.878;2022-09-27T10:56:22;12.70;;;11.40;;
6566;SDS011;3317;43.994;22.878;2022-09-27T10:58:51;13.03;;;11.63;;
6566;SDS011;3317;43.994;22.878;2022-09-27T11:01:20;13.20;;;11.20;;
6566;SDS011;3317;43.994;22.878;2022-09-27T11:03:49;12.87;;;11.27;;
6566;SDS011;3317;43.994;22.878;2022-09-27T11:06:26;10.60;;;9.57;;
6566;SDS011;3317;43.994;22.878;2022-09-27T11:09:08;11.03;;;9.87;;
6566;SDS011;3317;43.994;22.878;2022-09-27T11:11:43;12.03;;;10.53;;
6566;SDS011;3317;43.994;22.878;2022-09-27T11:14:20;12.10;;;10.90;;
6566;SDS011;3317;43.994;22.878;2022-09-27T11:16:58;10.67;;;9.57;;
6566;SDS011;3317;43.994;22.878;2022-09-27T11:19:51;14.17;;;11.13;;
6566;SDS011;3317;43.994;22.878;2022-09-27T11:22:47;13.43;;;11.70;;
6566;SDS011;3317;43.994;22.878;2022-09-27T11:25:38;10.67;;;9.57;;
6566;SDS011;3317;43.994;22.878;2022-09-27T11:28:14;10.63;;;9.53;;
6566;SDS011;3317;43.994;22.878;2022-09-27T11:30:54;16.53;;;14.57;;
6566;SDS011;3317;43.994;22.878;2022-09-27T11:33:33;14.97;;;12.50;;
6566;SDS011;3317;43.994;22.878;2022-09-27T11:36:12;14.63;;;13.13;;
6566;SDS011;3317;43.994;22.878;2022-09-27T11:38:50;15.20;;;12.90;;
6566;SDS011;3317;43.994;22.878;2022-09-27T11:41:29;11.90;;;10.70;;
6566;SDS011;3317;43.994;22.878;2022-09-27T11:44:30;11.47;;;10.30;;
6566;SDS011;3317;43.994;22.878;2022-09-27T11:47:12;11.60;;;10.40;;
6566;SDS011;3317;43.994;22.878;2022-09-27T11:49:49;14.63;;;13.10;;
6566;SDS011;3317;43.994;22.878;2022-09-27T11:52:34;13.20;;;11.57;;
6566;SDS011;3317;43.994;22.878;2022-09-27T11:55:14;14.10;;;11.40;;
6566;SDS011;3317;43.994;22.878;2022-09-27T11:57:53;13.20;;;11.90;;
6566;SDS011;3317;43.994;22.878;2022-09-27T12:00:32;13.00;;;10.50;;
6566;SDS011;3317;43.994;22.878;2022-09-27T12:03:15;15.77;;;13.33;;
6566;SDS011;3317;43.994;22.878;2022-09-27T12:06:00;13.40;;;12.00;;
6566;SDS011;3317;43.994;22.878;2022-09-27T12:11:23;12.93;;;11.50;;
6566;SDS011;3317;43.994;22.878;2022-09-27T12:13:56;13.23;;;11.83;;
6566;SDS011;3317;43.994;22.878;2022-09-27T12:16:27;13.50;;;11.60;;
6566;SDS011;3317;43.994;22.878;2022-09-27T12:18:57;12.73;;;11.50;;
6566;SDS011;3317;43.994;22.878;2022-09-27T12:21:26;13.40;;;11.93;;
6566;SDS011;3317;43.994;22.878;2022-09-27T12:23:58;13.73;;;12.33;;
6566;SDS011;3317;43.994;22.878;2022-09-27T12:26:28;13.37;;;11.97;;
6566;SDS011;3317;43.994;22.878;2022-09-27T12:29:02;13.67;;;12.30;;
6566;SDS011;3317;43.994;22.878;2022-09-27T12:31:39;13.83;;;12.43;;
6566;SDS011;3317;43.994;22.878;2022-09-27T12:34:11;11.30;;;10.17;;
6566;SDS011;3317;43.994;22.878;2022-09-27T12:36:43;8.73;;;7.83;;
6566;SDS011;3317;43.994;22.878;2022-09-27T12:39:14;11.93;;;10.70;;
6566;SDS011;3317;43.994;22.878;2022-09-27T12:41:48;10.47;;;9.47;;
6566;SDS011;3317;43.994;22.878;2022-09-27T12:44:26;12.90;;;10.77;;
6566;SDS011;3317;43.994;22.878;2022-09-27T12:46:56;10.87;;;9.70;;
6566;SDS011;3317;43.994;22.878;2022-09-27T12:49:35;11.10;;;9.53;;
6566;SDS011;3317;43.994;22.878;2022-09-27T12:52:10;12.93;;;10.23;;
6566;SDS011;3317;43.994;22.878;2022-09-27T12:54:48;10.43;;;9.43;;
6566;SDS011;3317;43.994;22.878;2022-09-27T12:57:38;13.50;;;9.87;;
6566;SDS011;3317;43.994;22.878;2022-09-27T13:00:17;13.57;;;10.30;;
6566;SDS011;3317;43.994;22.878;2022-09-27T13:08:51;11.50;;;9.83;;
6566;SDS011;3317;43.994;22.878;2022-09-27T13:11:38;12.93;;;9.40;;
6566;SDS011;3317;43.994;22.878;2022-09-27T13:14:13;10.50;;;8.47;;
6566;SDS011;3317;43.994;22.878;2022-09-27T13:16:43;10.80;;;9.40;;
6566;SDS011;3317;43.994;22.878;2022-09-27T13:25:13;9.70;;;8.70;;
6566;SDS011;3317;43.994;22.878;2022-09-27T13:31:59;8.97;;;8.17;;
6566;SDS011;3317;43.994;22.878;2022-09-27T13:34:36;12.93;;;8.73;;
6566;SDS011;3317;43.994;22.878;2022-09-27T13:40:15;10.77;;;9.47;;
6566;SDS011;3317;43.994;22.878;2022-09-27T13:42:49;12.30;;;9.50;;
6566;SDS011;3317;43.994;22.878;2022-09-27T13:45:33;9.50;;;8.53;;
6566;SDS011;3317;43.994;22.878;2022-09-27T13:48:06;9.53;;;8.63;;
6566;SDS011;3317;43.994;22.878;2022-09-27T13:50:38;10.50;;;9.40;;
6566;SDS011;3317;43.994;22.878;2022-09-27T13:53:17;10.70;;;9.60;;
6566;SDS011;3317;43.994;22.878;2022-09-27T13:55:50;12.50;;;9.73;;
6566;SDS011;3317;43.994;22.878;2022-09-27T14:01:08;9.77;;;8.77;;
6566;SDS011;3317;43.994;22.878;2022-09-27T14:03:42;10.50;;;9.00;;
6566;SDS011;3317;43.994;22.878;2022-09-27T14:06:16;9.30;;;8.40;;
6566;SDS011;3317;43.994;22.878;2022-09-27T14:08:48;9.40;;;8.50;;
6566;SDS011;3317;43.994;22.878;2022-09-27T14:11:19;10.07;;;9.07;;
6566;SDS011;3317;43.994;22.878;2022-09-27T14:13:50;9.33;;;8.33;;
6566;SDS011;3317;43.994;22.878;2022-09-27T14:16:20;11.87;;;7.90;;
6566;SDS011;3317;43.994;22.878;2022-09-27T14:18:47;8.90;;;8.00;;
6566;SDS011;3317;43.994;22.878;2022-09-27T14:21:20;8.57;;;7.63;;
6566;SDS011;3317;43.994;22.878;2022-09-27T14:23:53;10.30;;;7.33;;
6566;SDS011;3317;43.994;22.878;2022-09-27T14:27:01;10.40;;;7.83;;
6566;SDS011;3317;43.994;22.878;2022-09-27T14:29:38;7.90;;;7.10;;
6566;SDS011;3317;43.994;22.878;2022-09-27T14:32:10;12.03;;;8.00;;
6566;SDS011;3317;43.994;22.878;2022-09-27T14:34:38;8.37;;;7.67;;
6566;SDS011;3317;43.994;22.878;2022-09-27T14:37:11;9.93;;;7.77;;
6566;SDS011;3317;43.994;22.878;2022-09-27T14:39:54;8.77;;;7.63;;
6566;SDS011;3317;43.994;22.878;2022-09-27T14:42:24;10.70;;;7.67;;
6566;SDS011;3317;43.994;22.878;2022-09-27T14:44:53;9.57;;;8.57;;
6566;SDS011;3317;43.994;22.878;2022-09-27T14:47:26;7.97;;;7.17;;
6566;SDS011;3317;43.994;22.878;2022-09-27T14:49:54;8.63;;;7.70;;
6566;SDS011;3317;43.994;22.878;2022-09-27T14:52:24;9.40;;;7.20;;
6566;SDS011;3317;43.994;22.878;2022-09-27T14:54:55;10.63;;;8.10;;
6566;SDS011;3317;43.994;22.878;2022-09-27T14:57:23;14.77;;;7.93;;
6566;SDS011;3317;43.994;22.878;2022-09-27T14:59:52;7.90;;;7.20;;
6566;SDS011;3317;43.994;22.878;2022-09-27T15:02:21;9.10;;;7.60;;
6566;SDS011;3317;43.994;22.878;2022-09-27T15:04:51;14.03;;;9.13;;
6566;SDS011;3317;43.994;22.878;2022-09-27T15:07:20;9.70;;;8.07;;
6566;SDS011;3317;43.994;22.878;2022-09-27T15:09:47;8.50;;;7.70;;
6566;SDS011;3317;43.994;22.878;2022-09-27T15:12:18;12.00;;;8.20;;
6566;SDS011;3317;43.994;22.878;2022-09-27T15:14:50;10.20;;;7.83;;
6566;SDS011;3317;43.994;22.878;2022-09-27T15:17:22;11.73;;;8.80;;
6566;SDS011;3317;43.994;22.878;2022-09-27T15:19:57;10.43;;;7.50;;
6566;SDS011;3317;43.994;22.878;2022-09-27T15:22:33;9.37;;;8.33;;
6566;SDS011;3317;43.994;22.878;2022-09-27T15:25:10;7.40;;;6.70;;
6566;SDS011;3317;43.994;22.878;2022-09-27T15:27:45;10.83;;;9.60;;
6566;SDS011;3317;43.994;22.878;2022-09-27T15:30:15;15.90;;;8.57;;
6566;SDS011;3317;43.994;22.878;2022-09-27T15:32:47;3.70;;;2.90;;
6566;SDS011;3317;43.994;22.878;2022-09-27T15:35:20;4.40;;;2.60;;
6566;SDS011;3317;43.994;22.878;2022-09-27T15:38:01;7.00;;;3.10;;
6566;SDS011;3317;43.994;22.878;2022-09-27T15:43:28;8.47;;;3.77;;
6566;SDS011;3317;43.994;22.878;2022-09-27T15:45:57;5.97;;;2.73;;
6566;SDS011;3317;43.994;22.878;2022-09-27T15:48:27;6.87;;;3.80;;